Time;durP1;ratioP1;P1;durP2;ratioP2;P2;SDS_P1;SDS_P2;PMS_P1;PMS_P2;Temp;Humidity;BMP_temperature;BMP_pressure;BME280_temperature;BME280_humidity;BME280_pressure;Samples;Min_cycle;Max_cycle;Signal;HPM_P1;HPM_P2
2023/04/21 00:01:46;;;;;;;24.45;16.20;;;;;;;;;;5049595;28;20232;-70
2023/04/21 00:04:12;;;;;;;24.95;16.85;;;;;;;;;;5041930;28;20189;-70
2023/04/21 00:06:40;;;;;;;26.25;16.58;;;;;;;;;;5042858;28;20200;-71
2023/04/21 00:09:06;;;;;;;23.17;16.98;;;;;;;;;;5031204;28;20190;-71
2023/04/21 00:11:31;;;;;;;29.17;16.65;;;;;;;;;;5042418;28;20254;-71
2023/04/21 00:13:57;;;;;;;27.02;17.50;;;;;;;;;;5042119;28;20193;-70
2023/04/21 00:16:22;;;;;;;25.15;17.65;;;;;;;;;;5042822;28;20189;-71
2023/04/21 00:18:48;;;;;;;30.85;18.23;;;;;;;;;;5043485;28;20189;-70
2023/04/21 00:21:13;;;;;;;30.90;19.50;;;;;;;;;;5041541;28;20216;-70
2023/04/21 00:23:39;;;;;;;31.17;18.80;;;;;;;;;;5042683;28;20212;-70
2023/04/21 00:26:04;;;;;;;28.90;19.23;;;;;;;;;;5029511;28;20229;-72
2023/04/21 00:28:30;;;;;;;27.77;18.45;;;;;;;;;;5034919;28;20239;-70
2023/04/21 00:30:55;;;;;;;32.08;20.13;;;;;;;;;;5039924;28;20256;-70
2023/04/21 00:33:20;;;;;;;26.48;19.38;;;;;;;;;;5042658;28;20772;-70
2023/04/21 00:35:46;;;;;;;32.33;19.95;;;;;;;;;;5038415;28;20197;-70
2023/04/21 00:38:11;;;;;;;30.73;20.13;;;;;;;;;;5043082;28;20185;-69
2023/04/21 00:40:37;;;;;;;27.55;20.33;;;;;;;;;;5047409;28;20228;-70
2023/04/21 00:43:06;;;;;;;35.58;21.05;;;;;;;;;;5046005;28;20282;-70
2023/04/21 00:45:31;;;;;;;34.78;20.38;;;;;;;;;;5037346;28;20306;-70
2023/04/21 00:47:56;;;;;;;32.38;20.65;;;;;;;;;;5043003;28;20676;-69
2023/04/21 00:50:22;;;;;;;33.08;20.58;;;;;;;;;;5043090;28;20182;-70
2023/04/21 00:52:48;;;;;;;31.42;20.70;;;;;;;;;;5046267;28;20287;-70
2023/04/21 00:55:13;;;;;;;31.92;20.88;;;;;;;;;;5044301;28;20196;-70
2023/04/21 00:57:39;;;;;;;30.73;20.30;;;;;;;;;;5042656;28;20534;-70
2023/04/21 01:00:06;;;;;;;31.02;21.60;;;;;;;;;;5033829;28;20210;-69
2023/04/21 01:02:35;;;;;;;32.33;21.02;;;;;;;;;;5035767;28;20193;-70
2023/04/21 01:05:00;;;;;;;32.25;21.63;;;;;;;;;;5045052;28;20680;-70
2023/04/21 01:07:25;;;;;;;31.70;20.30;;;;;;;;;;5044783;28;20550;-69
2023/04/21 01:09:51;;;;;;;32.30;21.40;;;;;;;;;;5046972;28;20197;-70
2023/04/21 01:12:16;;;;;;;35.45;22.25;;;;;;;;;;5043312;28;20549;-70
2023/04/21 01:14:42;;;;;;;34.03;21.63;;;;;;;;;;5044962;28;20193;-70
2023/04/21 01:17:07;;;;;;;38.97;23.05;;;;;;;;;;5043678;28;20217;-70
2023/04/21 01:19:35;;;;;;;35.30;22.27;;;;;;;;;;5036738;28;20681;-70
2023/04/21 01:22:02;;;;;;;28.63;21.90;;;;;;;;;;5042985;28;20204;-67
2023/04/21 01:24:55;;;;;;;35.03;21.20;;;;;;;;;;5043964;28;20533;-70
2023/04/21 01:27:20;;;;;;;36.15;22.27;;;;;;;;;;5046358;28;20217;-69
2023/04/21 01:29:49;;;;;;;33.90;22.23;;;;;;;;;;5047246;28;20228;-70
2023/04/21 01:32:20;;;;;;;35.33;21.45;;;;;;;;;;5044501;28;20200;-70
2023/04/21 01:34:46;;;;;;;31.83;21.35;;;;;;;;;;5042067;28;20181;-70
2023/04/21 01:37:14;;;;;;;36.28;22.02;;;;;;;;;;5045033;28;20251;-69
2023/04/21 01:39:42;;;;;;;34.17;22.40;;;;;;;;;;5041675;28;20540;-69
2023/04/21 01:42:08;;;;;;;34.38;21.40;;;;;;;;;;5046012;28;20228;-70
2023/04/21 01:44:34;;;;;;;34.95;21.23;;;;;;;;;;5037428;28;20236;-70
2023/04/21 01:46:59;;;;;;;37.40;22.98;;;;;;;;;;5046976;28;20207;-70
2023/04/21 01:49:25;;;;;;;33.97;20.55;;;;;;;;;;5045195;28;20224;-69
2023/04/21 01:51:51;;;;;;;34.05;20.88;;;;;;;;;;5040147;28;20278;-70
2023/04/21 01:54:16;;;;;;;34.00;19.90;;;;;;;;;;5037273;28;20633;-69
2023/04/21 01:56:42;;;;;;;30.38;20.40;;;;;;;;;;5043617;28;20728;-70
2023/04/21 01:59:07;;;;;;;28.13;18.88;;;;;;;;;;5043487;28;20477;-70
2023/04/21 02:01:33;;;;;;;36.15;20.95;;;;;;;;;;5047518;28;20292;-70
2023/04/21 02:03:59;;;;;;;29.60;19.30;;;;;;;;;;5042773;28;20218;-70
2023/04/21 02:06:25;;;;;;;34.17;19.27;;;;;;;;;;5055514;28;20216;-70
2023/04/21 02:08:50;;;;;;;28.90;18.92;;;;;;;;;;5051564;28;20189;-71
2023/04/21 02:11:15;;;;;;;29.80;19.10;;;;;;;;;;5054398;28;20272;-70
2023/04/21 02:13:41;;;;;;;29.67;19.25;;;;;;;;;;5069665;28;20181;-70
2023/04/21 02:16:06;;;;;;;29.77;18.80;;;;;;;;;;5055739;28;20550;-70
2023/04/21 02:18:33;;;;;;;29.60;18.98;;;;;;;;;;5055822;28;20601;-68
2023/04/21 02:20:58;;;;;;;31.77;18.88;;;;;;;;;;5043264;28;20309;-68
2023/04/21 02:23:24;;;;;;;31.50;19.77;;;;;;;;;;5049943;28;20673;-69
2023/04/21 02:25:49;;;;;;;28.17;18.48;;;;;;;;;;5051959;28;20699;-69
2023/04/21 02:28:14;;;;;;;29.00;18.48;;;;;;;;;;5041535;28;20324;-69
2023/04/21 02:30:40;;;;;;;30.50;18.63;;;;;;;;;;5041223;28;20256;-68
2023/04/21 02:33:05;;;;;;;26.17;17.45;;;;;;;;;;5046517;28;20189;-69
2023/04/21 02:35:32;;;;;;;29.13;19.58;;;;;;;;;;5049734;28;20201;-69
2023/04/21 02:37:58;;;;;;;25.55;16.27;;;;;;;;;;5042837;28;20239;-69
2023/04/21 02:40:23;;;;;;;27.35;17.90;;;;;;;;;;5049056;28;20217;-70
2023/04/21 02:42:48;;;;;;;25.95;17.73;;;;;;;;;;5044259;28;20221;-70
2023/04/21 02:45:14;;;;;;;32.65;18.17;;;;;;;;;;5033417;28;20731;-70
2023/04/21 02:47:39;;;;;;;29.52;18.30;;;;;;;;;;5043799;28;20208;-70
2023/04/21 02:50:05;;;;;;;27.60;18.55;;;;;;;;;;5047202;28;20259;-70
2023/04/21 02:52:35;;;;;;;27.70;18.98;;;;;;;;;;5049191;28;20236;-70
2023/04/21 02:55:02;;;;;;;25.92;17.63;;;;;;;;;;5045848;28;20268;-70
2023/04/21 02:57:27;;;;;;;27.92;17.08;;;;;;;;;;5040380;28;20541;-70
2023/04/21 02:59:52;;;;;;;29.63;18.10;;;;;;;;;;5049009;28;20193;-70
2023/04/21 03:02:18;;;;;;;25.92;17.58;;;;;;;;;;5046057;28;20193;-70
2023/04/21 03:04:43;;;;;;;24.98;17.05;;;;;;;;;;5048172;28;20193;-70
2023/04/21 03:07:12;;;;;;;26.73;17.58;;;;;;;;;;5040440;28;20331;-70
2023/04/21 03:09:38;;;;;;;27.60;17.77;;;;;;;;;;5046770;28;20189;-71
2023/04/21 03:12:04;;;;;;;26.50;17.38;;;;;;;;;;5038974;28;20194;-70
2023/04/21 03:14:29;;;;;;;29.08;18.38;;;;;;;;;;5040713;28;20186;-70
2023/04/21 03:16:55;;;;;;;27.70;18.55;;;;;;;;;;5043961;28;20202;-70
2023/04/21 03:19:20;;;;;;;24.40;17.33;;;;;;;;;;5049629;28;20193;-70
2023/04/21 03:21:46;;;;;;;26.35;18.30;;;;;;;;;;5048493;28;20209;-70
2023/04/21 03:24:11;;;;;;;27.65;18.55;;;;;;;;;;5038857;28;20194;-70
2023/04/21 03:26:40;;;;;;;28.27;18.55;;;;;;;;;;5038325;28;20205;-70
2023/04/21 03:29:06;;;;;;;27.58;17.60;;;;;;;;;;5044472;28;21537;-69
2023/04/21 03:31:32;;;;;;;25.20;18.15;;;;;;;;;;5036265;28;20204;-70
2023/04/21 03:33:57;;;;;;;25.33;18.33;;;;;;;;;;5045869;28;20191;-71
2023/04/21 03:36:23;;;;;;;29.90;19.20;;;;;;;;;;5034171;28;20186;-70
2023/04/21 03:38:48;;;;;;;29.95;17.60;;;;;;;;;;5048416;28;20194;-70
2023/04/21 03:41:13;;;;;;;23.35;16.67;;;;;;;;;;5045510;28;20248;-69
2023/04/21 03:43:39;;;;;;;24.20;17.10;;;;;;;;;;5048489;28;20244;-69
2023/04/21 03:46:04;;;;;;;28.17;17.67;;;;;;;;;;5038696;28;20243;-69
2023/04/21 03:48:30;;;;;;;25.33;17.95;;;;;;;;;;5044743;28;20196;-70
2023/04/21 03:50:56;;;;;;;27.75;18.08;;;;;;;;;;5036670;28;20186;-69
2023/04/21 03:53:21;;;;;;;28.60;18.75;;;;;;;;;;5038724;28;20786;-70
2023/04/21 03:55:49;;;;;;;26.38;17.50;;;;;;;;;;5040775;28;20205;-70
2023/04/21 03:58:15;;;;;;;28.40;18.52;;;;;;;;;;5042705;28;20267;-70
2023/04/21 04:00:41;;;;;;;28.00;18.45;;;;;;;;;;5036271;28;20293;-71
2023/04/21 04:03:06;;;;;;;24.60;17.48;;;;;;;;;;5046832;28;20683;-69
2023/04/21 04:05:32;;;;;;;26.17;18.63;;;;;;;;;;5043393;28;20682;-69
2023/04/21 04:07:57;;;;;;;28.63;18.27;;;;;;;;;;5048204;28;20197;-69
2023/04/21 04:10:23;;;;;;;29.42;18.92;;;;;;;;;;5047653;28;20295;-70
2023/04/21 04:12:48;;;;;;;24.77;18.13;;;;;;;;;;5040724;28;20193;-68
2023/04/21 04:15:14;;;;;;;25.33;17.02;;;;;;;;;;5046435;28;20198;-69
2023/04/21 04:17:39;;;;;;;23.85;18.10;;;;;;;;;;5046603;28;20227;-69
2023/04/21 04:20:07;;;;;;;28.00;18.73;;;;;;;;;;5046839;28;20221;-70
2023/04/21 04:22:32;;;;;;;26.80;18.00;;;;;;;;;;5038456;28;20615;-70
2023/04/21 04:25:00;;;;;;;26.48;19.52;;;;;;;;;;5046149;28;20239;-70
2023/04/21 04:27:26;;;;;;;25.90;18.00;;;;;;;;;;5045340;28;20752;-70
2023/04/21 04:29:51;;;;;;;25.15;17.70;;;;;;;;;;5058016;28;20194;-70
2023/04/21 04:32:17;;;;;;;29.50;18.50;;;;;;;;;;5037714;28;20668;-69
2023/04/21 04:34:42;;;;;;;26.52;18.38;;;;;;;;;;5039125;28;20196;-69
2023/04/21 04:37:09;;;;;;;26.50;18.17;;;;;;;;;;5034731;28;20197;-70
2023/04/21 04:39:36;;;;;;;29.95;19.35;;;;;;;;;;5042808;28;20549;-70
2023/04/21 04:42:02;;;;;;;25.75;17.55;;;;;;;;;;5039435;28;20538;-70
2023/04/21 04:44:28;;;;;;;26.92;17.20;;;;;;;;;;5041118;28;20222;-70
2023/04/21 04:46:53;;;;;;;28.00;18.98;;;;;;;;;;5027721;28;20598;-70
2023/04/21 04:49:19;;;;;;;26.83;17.52;;;;;;;;;;5035998;28;20190;-69
2023/04/21 04:51:44;;;;;;;27.17;18.23;;;;;;;;;;5042175;28;20657;-69
2023/04/21 04:54:10;;;;;;;25.50;17.63;;;;;;;;;;5043009;28;20328;-70
2023/04/21 04:56:36;;;;;;;28.00;18.25;;;;;;;;;;5043528;28;20641;-70
2023/04/21 04:59:01;;;;;;;25.10;17.45;;;;;;;;;;5045780;28;20186;-69
2023/04/21 05:01:29;;;;;;;25.65;17.33;;;;;;;;;;5046576;28;20741;-69
2023/04/21 05:03:55;;;;;;;27.10;17.15;;;;;;;;;;5044543;28;20201;-70
2023/04/21 05:06:21;;;;;;;25.92;16.63;;;;;;;;;;5038264;28;20189;-70
2023/04/21 05:08:47;;;;;;;24.80;17.15;;;;;;;;;;5038974;28;20208;-69
2023/04/21 05:11:12;;;;;;;33.22;16.50;;;;;;;;;;5047268;28;20650;-69
2023/04/21 05:13:38;;;;;;;25.95;16.77;;;;;;;;;;5045633;28;20190;-69
2023/04/21 05:16:04;;;;;;;28.17;16.60;;;;;;;;;;5037174;28;20528;-69
2023/04/21 05:18:29;;;;;;;28.90;17.20;;;;;;;;;;5044094;28;20217;-69
2023/04/21 05:20:55;;;;;;;22.35;16.10;;;;;;;;;;5042201;28;20556;-69
2023/04/21 05:23:20;;;;;;;24.20;15.25;;;;;;;;;;5044302;28;20432;-70
2023/04/21 05:25:46;;;;;;;28.05;16.15;;;;;;;;;;5046948;28;20232;-69
2023/04/21 05:28:12;;;;;;;21.35;15.38;;;;;;;;;;5047040;28;20185;-70
2023/04/21 05:30:37;;;;;;;22.65;16.00;;;;;;;;;;5044328;28;20185;-69
2023/04/21 05:33:03;;;;;;;23.48;17.33;;;;;;;;;;5047377;28;20753;-69
2023/04/21 05:35:32;;;;;;;21.88;15.07;;;;;;;;;;5046151;28;20254;-70
2023/04/21 05:37:58;;;;;;;29.38;16.13;;;;;;;;;;5045452;28;20193;-70
2023/04/21 05:40:23;;;;;;;24.38;15.55;;;;;;;;;;5046573;28;20220;-70
2023/04/21 05:42:48;;;;;;;23.08;16.05;;;;;;;;;;5050514;28;20216;-70
2023/04/21 05:45:14;;;;;;;26.05;16.70;;;;;;;;;;5045089;28;20284;-70
2023/04/21 05:47:39;;;;;;;22.88;15.82;;;;;;;;;;5044337;28;20197;-70
2023/04/21 05:50:06;;;;;;;24.35;15.55;;;;;;;;;;5043837;28;20285;-71
2023/04/21 05:52:31;;;;;;;22.58;16.52;;;;;;;;;;5038553;28;20190;-70
2023/04/21 05:54:58;;;;;;;25.38;15.98;;;;;;;;;;5046536;28;20204;-70
2023/04/21 05:57:23;;;;;;;31.08;16.83;;;;;;;;;;5041879;28;20213;-70
2023/04/21 05:59:49;;;;;;;22.83;15.60;;;;;;;;;;5050492;28;20220;-70
2023/04/21 06:02:14;;;;;;;21.35;15.20;;;;;;;;;;5044578;28;20649;-69
2023/04/21 06:04:40;;;;;;;23.90;15.15;;;;;;;;;;5049464;28;20578;-69
2023/04/21 06:07:11;;;;;;;27.20;15.48;;;;;;;;;;5035710;28;20208;-70
2023/04/21 06:09:37;;;;;;;24.98;14.55;;;;;;;;;;5049926;28;20193;-69
2023/04/21 06:12:02;;;;;;;22.63;15.35;;;;;;;;;;5045132;28;20194;-69
2023/04/21 06:14:28;;;;;;;21.30;15.43;;;;;;;;;;5041457;28;20614;-70
2023/04/21 06:16:53;;;;;;;20.00;14.50;;;;;;;;;;5047812;28;20281;-70
2023/04/21 06:19:19;;;;;;;21.15;15.50;;;;;;;;;;5052037;28;20662;-70
2023/04/21 06:21:44;;;;;;;23.67;15.18;;;;;;;;;;5041434;28;20214;-70
2023/04/21 06:24:10;;;;;;;21.38;14.23;;;;;;;;;;5049133;28;20272;-70
2023/04/21 06:26:35;;;;;;;21.90;14.75;;;;;;;;;;5043100;28;20676;-70
2023/04/21 06:29:00;;;;;;;22.23;14.43;;;;;;;;;;5042292;28;20200;-70
2023/04/21 06:31:26;;;;;;;19.92;14.60;;;;;;;;;;5036050;28;20182;-70
2023/04/21 06:33:52;;;;;;;19.38;13.35;;;;;;;;;;5044383;28;20197;-70
2023/04/21 06:36:17;;;;;;;22.23;14.85;;;;;;;;;;5048865;28;20189;-71
2023/04/21 06:38:43;;;;;;;24.20;14.57;;;;;;;;;;5050390;28;20233;-70
2023/04/21 06:41:09;;;;;;;19.08;13.70;;;;;;;;;;5045671;28;20210;-71
2023/04/21 06:43:34;;;;;;;20.00;14.43;;;;;;;;;;5033885;28;20197;-70
2023/04/21 06:46:00;;;;;;;20.55;13.82;;;;;;;;;;5040168;28;20534;-72
2023/04/21 06:48:26;;;;;;;28.08;14.40;;;;;;;;;;5041978;28;20256;-70
2023/04/21 06:50:52;;;;;;;18.15;14.00;;;;;;;;;;5056651;28;20528;-70
2023/04/21 06:53:17;;;;;;;22.38;14.63;;;;;;;;;;5054061;28;20188;-71
2023/04/21 06:55:43;;;;;;;24.65;14.70;;;;;;;;;;5041922;28;20640;-70
2023/04/21 06:58:08;;;;;;;21.83;14.35;;;;;;;;;;5048710;28;20193;-70
2023/04/21 07:00:34;;;;;;;19.27;14.27;;;;;;;;;;5034950;28;20292;-70
2023/04/21 07:02:59;;;;;;;22.27;14.43;;;;;;;;;;5038600;28;20558;-70
2023/04/21 07:05:25;;;;;;;21.77;14.63;;;;;;;;;;5043967;28;20739;-70
2023/04/21 07:07:50;;;;;;;21.33;14.35;;;;;;;;;;5046626;28;20190;-71
2023/04/21 07:10:18;;;;;;;20.23;15.00;;;;;;;;;;5042968;28;20192;-70
2023/04/21 07:12:44;;;;;;;20.25;14.63;;;;;;;;;;5048648;28;20581;-71
2023/04/21 07:15:10;;;;;;;24.13;14.40;;;;;;;;;;5030083;28;20190;-71
2023/04/21 07:17:35;;;;;;;23.02;15.05;;;;;;;;;;5039967;28;20205;-68
2023/04/21 07:20:01;;;;;;;22.02;14.60;;;;;;;;;;5040326;28;20194;-69
2023/04/21 07:22:26;;;;;;;20.05;14.18;;;;;;;;;;5036500;28;20459;-68
2023/04/21 07:24:52;;;;;;;20.95;14.65;;;;;;;;;;5032911;28;20673;-68
2023/04/21 07:27:18;;;;;;;22.48;14.25;;;;;;;;;;5050711;28;20197;-71
2023/04/21 07:29:43;;;;;;;21.30;14.27;;;;;;;;;;5047728;28;20194;-69
2023/04/21 07:32:09;;;;;;;22.77;15.45;;;;;;;;;;5044368;28;20191;-69
2023/04/21 07:34:34;;;;;;;21.05;15.15;;;;;;;;;;5035103;28;20281;-69
2023/04/21 07:37:00;;;;;;;22.20;14.10;;;;;;;;;;5027821;28;20197;-69
2023/04/21 07:39:25;;;;;;;19.92;14.57;;;;;;;;;;5032817;28;20263;-69
2023/04/21 07:41:50;;;;;;;21.50;14.65;;;;;;;;;;5037633;28;20634;-69
2023/04/21 07:44:16;;;;;;;22.75;14.73;;;;;;;;;;5031670;28;20423;-69
2023/04/21 07:46:41;;;;;;;21.80;14.68;;;;;;;;;;5044338;28;20193;-68
2023/04/21 07:49:07;;;;;;;21.45;14.02;;;;;;;;;;5047494;28;20235;-69
2023/04/21 07:51:32;;;;;;;18.15;13.93;;;;;;;;;;5044886;28;20181;-69
2023/04/21 07:53:58;;;;;;;24.27;14.23;;;;;;;;;;5039027;28;20575;-69
2023/04/21 07:56:23;;;;;;;22.67;14.80;;;;;;;;;;5033239;28;20194;-70
2023/04/21 07:58:49;;;;;;;21.50;14.43;;;;;;;;;;5040181;28;20307;-69
2023/04/21 08:01:14;;;;;;;20.30;14.35;;;;;;;;;;5043264;28;20213;-68
2023/04/21 08:03:40;;;;;;;21.98;14.25;;;;;;;;;;5047966;28;20702;-69
2023/04/21 08:06:06;;;;;;;21.75;14.35;;;;;;;;;;5044845;28;20193;-69
2023/04/21 08:08:31;;;;;;;23.52;14.02;;;;;;;;;;5041011;28;20193;-70
2023/04/21 08:10:57;;;;;;;18.23;14.13;;;;;;;;;;5034189;28;20228;-68
2023/04/21 08:13:24;;;;;;;21.38;14.70;;;;;;;;;;5042532;28;20500;-68
2023/04/21 08:15:53;;;;;;;20.65;13.95;;;;;;;;;;5042052;28;20196;-69
2023/04/21 08:18:19;;;;;;;22.15;14.18;;;;;;;;;;5043820;28;20670;-69
2023/04/21 08:20:46;;;;;;;21.80;14.68;;;;;;;;;;5037437;28;20252;-70
2023/04/21 08:23:12;;;;;;;20.88;14.55;;;;;;;;;;5033843;28;20229;-69
2023/04/21 08:25:38;;;;;;;22.17;14.95;;;;;;;;;;5042967;28;20189;-69
2023/04/21 08:28:03;;;;;;;19.88;13.60;;;;;;;;;;5037405;28;20190;-69
2023/04/21 08:30:29;;;;;;;20.67;14.10;;;;;;;;;;5034407;28;20533;-69
2023/04/21 08:32:54;;;;;;;21.40;14.23;;;;;;;;;;5036022;28;20185;-69
2023/04/21 08:35:20;;;;;;;22.60;14.45;;;;;;;;;;5048133;28;20181;-69
2023/04/21 08:37:45;;;;;;;22.15;14.43;;;;;;;;;;5047924;28;20314;-69
2023/04/21 08:40:11;;;;;;;22.38;14.85;;;;;;;;;;5040938;28;20186;-69
2023/04/21 08:42:37;;;;;;;21.58;14.65;;;;;;;;;;5043071;28;20189;-69
2023/04/21 08:45:03;;;;;;;20.52;14.25;;;;;;;;;;5045625;28;20283;-69
2023/04/21 08:47:30;;;;;;;21.92;15.25;;;;;;;;;;5036382;28;20212;-69
2023/04/21 08:49:56;;;;;;;23.17;15.63;;;;;;;;;;5041272;28;20197;-68
2023/04/21 08:52:21;;;;;;;21.42;14.73;;;;;;;;;;5046474;28;20507;-69
2023/04/21 08:54:51;;;;;;;21.33;14.70;;;;;;;;;;5051101;28;20560;-69
2023/04/21 08:57:17;;;;;;;23.90;14.68;;;;;;;;;;5029724;28;20181;-68
2023/04/21 08:59:43;;;;;;;21.13;14.63;;;;;;;;;;5035438;28;20231;-68
2023/04/21 09:02:17;;;;;;;21.48;15.07;;;;;;;;;;5039584;28;20549;-69
2023/04/21 09:04:45;;;;;;;21.55;14.98;;;;;;;;;;5029764;28;20182;-68
2023/04/21 09:07:11;;;;;;;22.20;15.25;;;;;;;;;;5041312;28;20270;-68
2023/04/21 09:09:51;;;;;;;22.38;14.95;;;;;;;;;;5043091;28;20277;-68
2023/04/21 09:12:17;;;;;;;25.27;14.82;;;;;;;;;;5038903;28;20263;-69
2023/04/21 09:14:42;;;;;;;26.27;15.05;;;;;;;;;;5033331;28;20623;-69
2023/04/21 09:17:08;;;;;;;25.33;15.00;;;;;;;;;;5038896;28;20189;-68
2023/04/21 09:19:33;;;;;;;27.73;15.43;;;;;;;;;;5028014;28;20194;-68
2023/04/21 09:22:00;;;;;;;21.23;14.40;;;;;;;;;;5043431;28;20632;-69
2023/04/21 09:24:26;;;;;;;21.20;14.25;;;;;;;;;;5033456;28;20672;-69
2023/04/21 09:26:52;;;;;;;21.00;15.43;;;;;;;;;;5034216;28;20194;-68
2023/04/21 09:29:21;;;;;;;25.23;15.63;;;;;;;;;;5033394;28;20201;-68
2023/04/21 09:31:48;;;;;;;21.30;14.98;;;;;;;;;;5044211;28;20810;-69
2023/04/21 09:34:19;;;;;;;19.00;14.20;;;;;;;;;;5040424;28;20665;-69
2023/04/21 09:36:46;;;;;;;21.17;15.30;;;;;;;;;;5039860;28;20264;-68
2023/04/21 09:39:11;;;;;;;21.88;15.32;;;;;;;;;;5031837;28;20378;-68
2023/04/21 09:41:36;;;;;;;25.75;15.98;;;;;;;;;;5029542;28;20251;-68
2023/04/21 09:44:03;;;;;;;27.55;16.42;;;;;;;;;;5027486;28;20222;-68
2023/04/21 09:46:31;;;;;;;23.67;16.05;;;;;;;;;;5047302;28;20204;-68
2023/04/21 09:49:00;;;;;;;24.63;15.82;;;;;;;;;;5048097;28;20189;-69
2023/04/21 09:51:26;;;;;;;24.90;15.98;;;;;;;;;;5041384;28;20277;-68
2023/04/21 09:53:57;;;;;;;24.60;16.33;;;;;;;;;;5027523;28;20204;-68
2023/04/21 09:56:24;;;;;;;24.23;16.38;;;;;;;;;;5039754;28;20284;-68
2023/04/21 09:58:56;;;;;;;23.75;17.20;;;;;;;;;;5027338;28;20209;-69
2023/04/21 10:01:25;;;;;;;22.92;15.85;;;;;;;;;;5037813;28;20941;-68
2023/04/21 10:03:52;;;;;;;23.38;16.13;;;;;;;;;;5027561;28;20571;-68
2023/04/21 10:06:18;;;;;;;23.88;16.98;;;;;;;;;;5037440;28;20200;-68
2023/04/21 10:08:44;;;;;;;23.67;16.70;;;;;;;;;;5046427;28;20717;-68
2023/04/21 10:11:11;;;;;;;26.23;17.17;;;;;;;;;;5046683;28;20193;-68
2023/04/21 10:13:37;;;;;;;27.45;17.48;;;;;;;;;;5046383;28;20554;-68
2023/04/21 10:16:09;;;;;;;25.27;17.08;;;;;;;;;;5034613;28;20193;-69
2023/04/21 10:18:41;;;;;;;22.45;16.23;;;;;;;;;;5044196;28;20186;-68
2023/04/21 10:21:09;;;;;;;24.45;17.50;;;;;;;;;;5032493;28;20575;-68
2023/04/21 10:23:45;;;;;;;21.58;15.95;;;;;;;;;;5035921;28;20493;-69
2023/04/21 10:26:19;;;;;;;21.92;16.42;;;;;;;;;;5034552;28;20189;-69
2023/04/21 10:28:55;;;;;;;21.55;16.55;;;;;;;;;;5044694;28;20212;-69
2023/04/21 10:31:21;;;;;;;26.17;16.90;;;;;;;;;;5036845;28;20178;-68
2023/04/21 10:34:05;;;;;;;26.42;16.85;;;;;;;;;;5051197;28;20189;-69
2023/04/21 10:36:30;;;;;;;25.40;17.50;;;;;;;;;;5037511;28;20249;-69
2023/04/21 10:39:00;;;;;;;23.00;16.17;;;;;;;;;;5033301;28;20186;-69
2023/04/21 10:41:30;;;;;;;23.67;16.55;;;;;;;;;;5034817;28;20577;-69
2023/04/21 10:43:58;;;;;;;24.17;17.08;;;;;;;;;;5029293;28;20205;-68
2023/04/21 10:46:51;;;;;;;28.08;17.40;;;;;;;;;;5044780;28;20193;-69
2023/04/21 10:49:28;;;;;;;23.98;16.95;;;;;;;;;;5038691;28;20230;-69
2023/04/21 10:52:01;;;;;;;23.15;17.25;;;;;;;;;;5031255;28;20700;-69
2023/04/21 10:54:45;;;;;;;23.00;17.48;;;;;;;;;;5039924;28;20182;-69
2023/04/21 10:57:18;;;;;;;25.23;17.13;;;;;;;;;;5036861;28;20224;-69
2023/04/21 10:59:44;;;;;;;25.25;16.73;;;;;;;;;;5040850;28;20280;-68
2023/04/21 11:02:11;;;;;;;27.73;17.65;;;;;;;;;;5041614;28;20228;-69
2023/04/21 11:04:40;;;;;;;26.13;17.10;;;;;;;;;;5039768;28;20642;-68
2023/04/21 11:07:17;;;;;;;23.08;17.25;;;;;;;;;;5046233;28;20197;-69
2023/04/21 11:09:44;;;;;;;24.27;16.92;;;;;;;;;;5048768;28;20213;-71
2023/04/21 11:12:11;;;;;;;23.67;15.57;;;;;;;;;;5049898;28;20178;-69
2023/04/21 11:14:39;;;;;;;23.60;16.48;;;;;;;;;;5034127;28;20315;-69
2023/04/21 11:17:10;;;;;;;24.70;16.90;;;;;;;;;;5041829;28;20202;-70
2023/04/21 11:19:37;;;;;;;24.10;16.35;;;;;;;;;;5030507;28;20190;-70
2023/04/21 11:22:03;;;;;;;28.80;16.77;;;;;;;;;;5043127;28;20541;-70
2023/04/21 11:24:28;;;;;;;23.67;16.30;;;;;;;;;;5043283;28;20583;-70
2023/04/21 11:26:55;;;;;;;29.10;17.75;;;;;;;;;;5041642;28;20226;-69
2023/04/21 11:29:21;;;;;;;23.88;17.17;;;;;;;;;;5045017;28;20197;-70
2023/04/21 11:31:48;;;;;;;21.92;16.70;;;;;;;;;;5045518;28;20196;-70
2023/04/21 11:34:15;;;;;;;23.35;17.38;;;;;;;;;;5035024;28;20520;-70
2023/04/21 11:36:43;;;;;;;23.88;17.58;;;;;;;;;;5040064;28;20629;-69
2023/04/21 11:39:11;;;;;;;23.83;16.55;;;;;;;;;;5031761;28;20653;-69
2023/04/21 11:41:42;;;;;;;24.30;16.52;;;;;;;;;;5040330;28;20607;-70
2023/04/21 11:44:08;;;;;;;24.05;17.17;;;;;;;;;;5040384;28;20237;-70
2023/04/21 11:46:36;;;;;;;21.52;16.55;;;;;;;;;;5039159;28;20182;-70
2023/04/21 11:49:06;;;;;;;27.60;17.00;;;;;;;;;;5033529;28;20194;-70
2023/04/21 11:51:42;;;;;;;24.55;16.33;;;;;;;;;;4340503;28;10000684;-70
2023/04/21 11:54:12;;;;;;;23.23;16.55;;;;;;;;;;5035223;28;20281;-69
2023/04/21 11:56:42;;;;;;;24.20;16.92;;;;;;;;;;5042582;28;20269;-69
2023/04/21 11:59:28;;;;;;;22.63;15.60;;;;;;;;;;5029681;28;20193;-69
2023/04/21 12:01:54;;;;;;;25.38;16.30;;;;;;;;;;5037194;28;20585;-69
2023/04/21 12:04:21;;;;;;;24.58;16.60;;;;;;;;;;5045414;28;20277;-69
2023/04/21 12:06:58;;;;;;;21.35;15.93;;;;;;;;;;5034688;28;20235;-69
2023/04/21 12:09:23;;;;;;;26.13;16.40;;;;;;;;;;5034130;28;20212;-69
2023/04/21 12:11:51;;;;;;;30.48;17.42;;;;;;;;;;5043011;28;20189;-69
2023/04/21 12:14:21;;;;;;;27.15;16.25;;;;;;;;;;5042854;28;20562;-69
2023/04/21 12:16:54;;;;;;;25.15;16.17;;;;;;;;;;5045406;28;20189;-69
2023/04/21 12:19:40;;;;;;;25.13;16.50;;;;;;;;;;5045737;28;20182;-69
2023/04/21 12:22:17;;;;;;;23.70;16.63;;;;;;;;;;5036790;28;20213;-69
2023/04/21 12:24:43;;;;;;;26.15;15.32;;;;;;;;;;5036884;28;20185;-70
2023/04/21 12:27:08;;;;;;;21.90;15.88;;;;;;;;;;5043643;28;20549;-69
2023/04/21 12:29:34;;;;;;;20.58;15.68;;;;;;;;;;5027734;28;20194;-69
2023/04/21 12:32:00;;;;;;;21.20;15.30;;;;;;;;;;5026552;28;20594;-69
2023/04/21 12:34:26;;;;;;;20.33;14.40;;;;;;;;;;5045615;28;20201;-69
2023/04/21 12:36:51;;;;;;;22.42;14.57;;;;;;;;;;5045481;28;20193;-69
2023/04/21 12:39:17;;;;;;;24.75;15.10;;;;;;;;;;5034901;28;20637;-70
2023/04/21 12:41:43;;;;;;;23.60;14.65;;;;;;;;;;5026832;28;20205;-69
2023/04/21 12:44:08;;;;;;;22.02;14.98;;;;;;;;;;5031659;28;20225;-70
2023/04/21 12:46:34;;;;;;;24.27;14.82;;;;;;;;;;5033987;28;20197;-70
2023/04/21 12:48:59;;;;;;;21.80;14.07;;;;;;;;;;5032624;28;20213;-69
2023/04/21 12:51:25;;;;;;;19.52;14.23;;;;;;;;;;5040132;28;20220;-69
2023/04/21 12:53:50;;;;;;;25.13;14.13;;;;;;;;;;5046935;28;20247;-70
2023/04/21 12:56:16;;;;;;;23.98;14.43;;;;;;;;;;5046983;28;20200;-70
2023/04/21 12:58:42;;;;;;;17.60;13.68;;;;;;;;;;5051898;28;20574;-70
2023/04/21 13:01:07;;;;;;;20.10;13.85;;;;;;;;;;5044002;28;20285;-70
2023/04/21 13:03:32;;;;;;;17.38;12.77;;;;;;;;;;5046712;28;20723;-70
2023/04/21 13:05:58;;;;;;;20.52;13.90;;;;;;;;;;5046220;28;20322;-69
2023/04/21 13:08:23;;;;;;;19.83;13.70;;;;;;;;;;5052924;28;20569;-69
2023/04/21 13:10:49;;;;;;;18.83;12.55;;;;;;;;;;5034179;28;20185;-70
2023/04/21 13:13:14;;;;;;;18.98;13.73;;;;;;;;;;5046881;28;20662;-69
2023/04/21 13:15:40;;;;;;;18.60;13.93;;;;;;;;;;5030748;28;20189;-69
2023/04/21 13:18:05;;;;;;;17.85;13.10;;;;;;;;;;5041777;28;20201;-69
2023/04/21 13:20:31;;;;;;;21.75;13.70;;;;;;;;;;5030690;28;20566;-69
2023/04/21 13:22:56;;;;;;;19.70;12.45;;;;;;;;;;5035968;28;20251;-69
2023/04/21 13:25:22;;;;;;;18.10;12.60;;;;;;;;;;5038003;28;20189;-69
2023/04/21 13:27:47;;;;;;;17.92;12.45;;;;;;;;;;5038030;28;20279;-69
2023/04/21 13:30:13;;;;;;;20.23;13.52;;;;;;;;;;5040270;28;20190;-69
2023/04/21 13:32:39;;;;;;;21.40;12.57;;;;;;;;;;5041906;28;20193;-69
2023/04/21 13:35:08;;;;;;;17.80;12.35;;;;;;;;;;5043315;28;20221;-69
2023/04/21 13:37:42;;;;;;;15.50;11.80;;;;;;;;;;5041146;28;20288;-69
2023/04/21 13:40:09;;;;;;;17.33;12.27;;;;;;;;;;5040103;28;20188;-69
2023/04/21 13:42:36;;;;;;;18.02;11.90;;;;;;;;;;5038435;28;20193;-69
2023/04/21 13:45:02;;;;;;;17.02;12.65;;;;;;;;;;5041479;28;20225;-69
2023/04/21 13:47:31;;;;;;;23.55;12.07;;;;;;;;;;5041599;28;20227;-69
2023/04/21 13:49:56;;;;;;;17.35;12.00;;;;;;;;;;5040719;28;20189;-69
2023/04/21 13:52:22;;;;;;;19.58;12.57;;;;;;;;;;5041953;28;20191;-70
2023/04/21 13:54:47;;;;;;;19.38;11.68;;;;;;;;;;5042271;28;20205;-69
2023/04/21 13:57:13;;;;;;;22.60;11.75;;;;;;;;;;5043523;28;20196;-69
2023/04/21 13:59:40;;;;;;;19.23;12.38;;;;;;;;;;5043282;28;20204;-68
2023/04/21 14:02:06;;;;;;;15.45;11.85;;;;;;;;;;5042957;28;20224;-69
2023/04/21 14:04:31;;;;;;;15.90;11.80;;;;;;;;;;5046610;28;20201;-68
2023/04/21 14:06:56;;;;;;;18.30;11.68;;;;;;;;;;5044006;28;20251;-69
2023/04/21 14:09:22;;;;;;;18.00;11.95;;;;;;;;;;5043896;28;20194;-69
2023/04/21 14:11:47;;;;;;;18.23;11.48;;;;;;;;;;5047453;28;20212;-69
2023/04/21 14:14:12;;;;;;;18.10;11.98;;;;;;;;;;5042343;28;20307;-69